createdAt,value
2019-03-31T00:02:07.197Z,24.40
2019-03-31T00:04:35.634Z,25.50
2019-03-31T00:07:04.058Z,26.52
2019-03-31T00:09:32.478Z,22.77
2019-03-31T00:12:00.983Z,24.57
2019-03-31T00:14:29.392Z,25.88
2019-03-31T00:16:57.829Z,26.10
2019-03-31T00:19:26.281Z,25.10
2019-03-31T00:21:54.757Z,23.98
2019-03-31T00:24:23.191Z,25.10
2019-03-31T00:26:51.694Z,22.25
2019-03-31T00:29:20.113Z,22.45
2019-03-31T00:31:48.530Z,26.15
2019-03-31T00:34:16.938Z,23.35
2019-03-31T00:36:45.401Z,26.37
2019-03-31T00:39:13.829Z,26.35
2019-03-31T00:41:42.258Z,27.70
2019-03-31T00:44:10.672Z,25.88
2019-03-31T00:46:39.085Z,26.23
2019-03-31T00:49:07.497Z,26.77
2019-03-31T00:51:35.926Z,25.25
2019-03-31T00:54:04.330Z,27.15
2019-03-31T00:56:32.753Z,25.82
2019-03-31T00:59:01.174Z,27.37
2019-03-31T01:01:36.658Z,29.50
2019-03-31T01:04:05.960Z,25.65
2019-03-31T01:06:35.916Z,28.73
2019-03-31T01:09:09.067Z,26.30
2019-03-31T01:11:37.503Z,30.55
2019-03-31T01:14:05.997Z,27.98
2019-03-31T01:16:34.485Z,27.47
2019-03-31T01:19:04.648Z,28.66
2019-03-31T01:21:33.067Z,28.67
2019-03-31T01:24:01.563Z,27.95
2019-03-31T01:26:29.980Z,27.95
2019-03-31T01:28:58.864Z,26.60
2019-03-31T01:31:28.602Z,29.70
2019-03-31T01:33:57.527Z,30.48
2019-03-31T01:36:25.929Z,27.27
2019-03-31T01:38:54.356Z,28.15
2019-03-31T01:41:22.766Z,28.98
2019-03-31T01:43:51.499Z,29.85
2019-03-31T01:46:21.641Z,29.00
2019-03-31T01:48:50.066Z,27.00
2019-03-31T01:51:18.485Z,26.23
2019-03-31T01:53:46.906Z,24.92
2019-03-31T01:56:15.427Z,26.95
2019-03-31T01:58:44.247Z,27.25
2019-03-31T02:01:14.735Z,28.80
2019-03-31T02:03:43.428Z,26.23
2019-03-31T02:06:12.145Z,26.15
2019-03-31T02:08:40.915Z,25.23
2019-03-31T02:11:09.332Z,26.55
2019-03-31T02:13:37.763Z,24.07
2019-03-31T02:16:06.194Z,25.37
2019-03-31T02:18:34.618Z,23.70
2019-03-31T02:21:03.211Z,23.55
2019-03-31T02:23:31.706Z,25.00
2019-03-31T02:26:00.187Z,25.12
2019-03-31T02:28:28.634Z,28.00
2019-03-31T02:30:57.046Z,22.80
2019-03-31T02:33:25.837Z,25.85
2019-03-31T02:35:54.295Z,25.15
2019-03-31T02:38:22.761Z,26.52
2019-03-31T02:40:51.219Z,25.20
2019-03-31T02:43:19.629Z,24.00
2019-03-31T02:45:48.634Z,21.85
2019-03-31T02:48:17.086Z,25.85
2019-03-31T02:50:48.285Z,24.37
2019-03-31T02:53:17.096Z,28.17
2019-03-31T02:55:45.934Z,30.05
2019-03-31T02:58:15.555Z,27.62
2019-03-31T03:00:44.944Z,28.35
2019-03-31T03:03:34.206Z,28.87
2019-03-31T03:06:04.947Z,27.55
2019-03-31T03:08:36.095Z,26.80
2019-03-31T03:11:04.569Z,27.85
2019-03-31T03:13:35.010Z,26.52
2019-03-31T03:16:09.179Z,27.93
2019-03-31T03:18:37.604Z,26.93
2019-03-31T03:21:06.007Z,27.05
2019-03-31T03:23:34.428Z,25.37
2019-03-31T03:26:02.833Z,29.60
2019-03-31T03:28:31.242Z,27.82
2019-03-31T03:30:59.919Z,26.68
2019-03-31T03:33:28.753Z,25.17
2019-03-31T03:35:57.231Z,30.48
2019-03-31T03:38:25.679Z,26.02
2019-03-31T03:40:54.087Z,27.90
2019-03-31T03:43:22.495Z,27.25
2019-03-31T03:45:50.930Z,22.37
2019-03-31T03:48:19.998Z,26.00
2019-03-31T03:50:48.403Z,27.13
2019-03-31T03:53:16.806Z,28.90
2019-03-31T03:55:45.535Z,30.30
2019-03-31T03:58:14.656Z,27.27
2019-03-31T04:00:43.646Z,26.50
2019-03-31T04:03:28.979Z,25.95
2019-03-31T04:05:42.176Z,30.72
2019-03-31T04:08:10.591Z,24.57
2019-03-31T04:10:44.794Z,29.77
2019-03-31T04:13:13.662Z,28.30
2019-03-31T04:15:42.279Z,27.93
2019-03-31T04:18:10.720Z,28.20
2019-03-31T04:20:39.825Z,25.07
2019-03-31T04:23:08.572Z,25.52
2019-03-31T04:25:37.323Z,26.77
2019-03-31T04:28:05.746Z,28.05
2019-03-31T04:30:34.164Z,29.63
2019-03-31T04:33:02.670Z,30.88
2019-03-31T04:35:31.170Z,27.30
2019-03-31T04:37:59.653Z,28.67
2019-03-31T04:40:28.159Z,28.80
2019-03-31T04:42:56.812Z,26.35
2019-03-31T04:45:25.531Z,28.42
2019-03-31T04:47:53.935Z,29.72
2019-03-31T04:50:22.358Z,30.72
2019-03-31T04:52:51.176Z,26.17
2019-03-31T04:55:19.598Z,32.38
2019-03-31T04:57:48.006Z,28.90
2019-03-31T05:00:16.524Z,28.55
2019-03-31T05:02:45.262Z,30.95
2019-03-31T05:05:13.805Z,27.52
2019-03-31T05:07:42.238Z,28.50
2019-03-31T05:10:10.724Z,24.63
2019-03-31T05:12:39.145Z,29.07
2019-03-31T05:15:07.631Z,29.87
2019-03-31T05:17:36.106Z,30.10
2019-03-31T05:20:05.902Z,28.12
2019-03-31T05:22:34.300Z,30.07
2019-03-31T05:25:02.797Z,26.55
2019-03-31T05:27:31.287Z,31.02
2019-03-31T05:29:59.723Z,29.37
2019-03-31T05:32:28.119Z,29.45
2019-03-31T05:34:56.542Z,29.57
2019-03-31T05:37:25.241Z,29.52
2019-03-31T05:39:53.641Z,29.57
2019-03-31T05:42:22.051Z,31.17
2019-03-31T05:44:50.467Z,26.68
2019-03-31T05:47:18.884Z,25.25
2019-03-31T05:49:47.285Z,27.48
2019-03-31T05:52:16.695Z,29.95
2019-03-31T05:54:45.104Z,24.20
2019-03-31T05:57:13.512Z,26.95
2019-03-31T05:59:41.960Z,27.42
2019-03-31T06:02:10.493Z,30.72
2019-03-31T06:04:38.998Z,30.48
2019-03-31T06:07:07.705Z,30.50
2019-03-31T06:09:36.116Z,27.30
2019-03-31T06:12:04.525Z,24.87
2019-03-31T06:14:32.939Z,30.45
2019-03-31T06:17:01.442Z,28.73
2019-03-31T06:19:29.839Z,31.45
2019-03-31T06:21:58.274Z,30.25
2019-03-31T06:24:26.770Z,30.03
2019-03-31T06:26:55.185Z,29.82
2019-03-31T06:29:23.585Z,30.68
2019-03-31T06:31:52.058Z,27.95
2019-03-31T06:34:20.469Z,30.82
2019-03-31T06:36:48.916Z,31.10
2019-03-31T06:39:36.639Z,28.60
2019-03-31T06:42:05.123Z,28.87
2019-03-31T06:44:33.542Z,29.40
2019-03-31T06:47:01.984Z,28.42
2019-03-31T06:49:30.540Z,27.93
2019-03-31T06:51:58.992Z,27.07
2019-03-31T06:54:27.775Z,29.80
2019-03-31T06:56:56.193Z,32.70
2019-03-31T06:59:25.531Z,28.30
2019-03-31T07:01:54.007Z,30.23
2019-03-31T07:04:22.462Z,28.47
2019-03-31T07:06:50.888Z,30.10
2019-03-31T07:09:19.333Z,28.90
2019-03-31T07:11:48.688Z,26.93
2019-03-31T07:14:17.382Z,28.25
2019-03-31T07:16:45.787Z,27.87
2019-03-31T07:19:14.212Z,25.70
2019-03-31T07:21:42.690Z,26.75
2019-03-31T07:24:11.707Z,26.77
2019-03-31T07:26:40.138Z,28.23
2019-03-31T07:29:08.775Z,30.23
2019-03-31T07:31:37.209Z,29.83
2019-03-31T07:34:05.622Z,30.30
2019-03-31T07:36:34.040Z,29.92
2019-03-31T07:39:03.064Z,29.25
2019-03-31T07:41:31.918Z,35.83
2019-03-31T07:44:00.867Z,32.00
2019-03-31T07:46:29.295Z,36.20
2019-03-31T07:48:57.694Z,35.60
2019-03-31T07:51:26.095Z,37.05
2019-03-31T07:53:54.570Z,38.40
2019-03-31T07:56:23.025Z,36.67
2019-03-31T07:58:51.442Z,37.70
2019-03-31T08:01:19.857Z,38.28
2019-03-31T08:03:48.269Z,41.15
2019-03-31T08:06:16.665Z,41.10
2019-03-31T08:08:45.327Z,42.65
2019-03-31T08:11:16.927Z,48.10
2019-03-31T08:13:43.877Z,43.68
2019-03-31T08:16:12.377Z,43.90
2019-03-31T08:18:40.804Z,46.80
2019-03-31T08:21:09.205Z,50.28
2019-03-31T08:23:37.649Z,53.20
2019-03-31T08:26:06.131Z,49.73
2019-03-31T08:28:36.184Z,52.43
2019-03-31T08:31:04.681Z,54.10
2019-03-31T08:33:33.310Z,53.83
2019-03-31T08:36:01.724Z,58.00
2019-03-31T08:38:31.159Z,55.55
2019-03-31T08:40:59.729Z,53.45
2019-03-31T08:43:28.166Z,58.52
2019-03-31T08:45:56.585Z,61.90
2019-03-31T08:48:25.012Z,61.65
2019-03-31T08:50:53.412Z,58.78
2019-03-31T08:53:21.903Z,59.08
2019-03-31T08:55:50.316Z,54.58
2019-03-31T08:58:19.079Z,59.03
2019-03-31T09:00:49.137Z,57.33
2019-03-31T09:03:24.507Z,57.97
2019-03-31T09:06:01.551Z,58.40
2019-03-31T09:08:29.866Z,56.10
2019-03-31T09:11:04.123Z,56.33
2019-03-31T09:13:32.560Z,55.73
2019-03-31T09:16:00.986Z,55.75
2019-03-31T09:18:29.411Z,63.30
2019-03-31T09:20:57.816Z,55.52
2019-03-31T09:23:26.244Z,58.15
2019-03-31T09:25:54.735Z,55.20
2019-03-31T09:28:23.196Z,55.33
2019-03-31T09:30:51.707Z,53.85
2019-03-31T09:33:20.206Z,49.57
2019-03-31T09:35:48.690Z,53.05
2019-03-31T09:38:17.111Z,57.13
2019-03-31T09:40:45.522Z,58.68
2019-03-31T09:43:13.965Z,53.60
2019-03-31T09:45:42.412Z,55.90
2019-03-31T09:48:11.058Z,52.45
2019-03-31T09:50:39.468Z,56.08
2019-03-31T09:53:07.910Z,54.30
2019-03-31T09:55:36.594Z,55.85
2019-03-31T09:58:05.123Z,57.83
2019-03-31T10:00:42.496Z,54.75
2019-03-31T10:03:10.900Z,54.80
2019-03-31T10:05:39.330Z,56.13
2019-03-31T10:08:07.749Z,57.30
2019-03-31T10:10:36.318Z,55.63
2019-03-31T10:13:04.763Z,58.40
2019-03-31T10:15:33.240Z,55.10
2019-03-31T10:18:01.649Z,53.98
2019-03-31T10:20:31.564Z,56.10
2019-03-31T10:23:00.280Z,58.23
2019-03-31T10:25:28.705Z,60.48
2019-03-31T10:27:57.121Z,59.33
2019-03-31T10:30:35.909Z,59.77
2019-03-31T10:33:04.956Z,65.55
2019-03-31T10:35:33.436Z,61.92
2019-03-31T10:38:02.255Z,62.70
2019-03-31T10:40:30.995Z,63.58
2019-03-31T10:42:59.398Z,61.80
2019-03-31T10:45:28.236Z,67.08
2019-03-31T10:47:56.665Z,65.77
2019-03-31T10:50:25.236Z,63.10
2019-03-31T10:52:53.642Z,63.23
2019-03-31T10:55:22.070Z,57.58
2019-03-31T10:57:50.483Z,64.15
2019-03-31T11:00:33.986Z,61.50
2019-03-31T11:03:02.494Z,60.88
2019-03-31T11:05:30.921Z,64.00
2019-03-31T11:07:59.393Z,59.90
2019-03-31T11:10:27.852Z,62.75
2019-03-31T11:12:56.333Z,56.98
2019-03-31T11:15:24.756Z,59.67
2019-03-31T11:17:53.154Z,59.75
2019-03-31T11:20:21.639Z,55.15
2019-03-31T11:23:03.856Z,60.83
2019-03-31T11:25:32.288Z,56.95
2019-03-31T11:28:00.701Z,58.48
2019-03-31T11:30:29.209Z,55.43
2019-03-31T11:32:57.623Z,55.43
2019-03-31T11:35:26.048Z,49.85
2019-03-31T11:37:54.458Z,52.17
2019-03-31T11:40:22.922Z,50.60
2019-03-31T11:42:51.333Z,50.35
2019-03-31T11:45:19.832Z,49.58
2019-03-31T11:47:48.936Z,46.95
2019-03-31T11:50:17.515Z,46.23
2019-03-31T11:52:45.953Z,49.58
2019-03-31T11:55:14.650Z,45.23
2019-03-31T11:57:43.070Z,46.53
2019-03-31T12:00:22.355Z,49.70
2019-03-31T12:02:51.052Z,42.48
2019-03-31T12:05:19.478Z,44.33
2019-03-31T12:07:47.907Z,42.27
2019-03-31T12:10:19.663Z,42.58
2019-03-31T12:12:46.602Z,39.53
2019-03-31T12:15:15.007Z,39.55
2019-03-31T12:17:43.640Z,38.23
2019-03-31T12:20:12.261Z,35.73
2019-03-31T12:22:40.674Z,32.20
2019-03-31T12:25:09.269Z,32.43
2019-03-31T12:27:37.763Z,30.27
2019-03-31T12:30:09.262Z,28.60
2019-03-31T12:32:38.644Z,27.55
2019-03-31T12:35:08.477Z,31.10
2019-03-31T12:37:42.805Z,29.30
2019-03-31T12:40:09.503Z,27.45
2019-03-31T12:42:37.920Z,27.67
2019-03-31T12:45:06.501Z,27.45
2019-03-31T12:47:35.329Z,27.82
2019-03-31T12:50:05.657Z,25.62
2019-03-31T12:52:46.146Z,26.85
2019-03-31T12:55:05.171Z,27.37
2019-03-31T12:57:33.574Z,27.98
2019-03-31T13:00:02.014Z,26.75
2019-03-31T13:02:30.490Z,26.52
2019-03-31T13:04:59.960Z,30.15
2019-03-31T13:07:28.509Z,27.13
2019-03-31T13:09:56.933Z,25.85
2019-03-31T13:12:25.365Z,26.70
2019-03-31T13:14:53.822Z,25.37
2019-03-31T13:17:22.240Z,32.60
2019-03-31T13:19:50.647Z,25.80
2019-03-31T13:22:19.070Z,27.15
2019-03-31T13:24:47.487Z,26.82
2019-03-31T13:27:15.965Z,23.55
2019-03-31T13:29:44.469Z,24.52
2019-03-31T13:32:12.900Z,25.32
2019-03-31T13:34:41.355Z,27.30
2019-03-31T13:37:09.798Z,27.82
2019-03-31T13:39:38.465Z,29.23
2019-03-31T13:42:06.898Z,25.52
2019-03-31T13:44:35.346Z,24.80
2019-03-31T13:47:03.838Z,26.03
2019-03-31T13:49:32.248Z,26.20
2019-03-31T13:52:00.740Z,24.80
2019-03-31T13:54:29.172Z,28.25
2019-03-31T13:56:58.243Z,29.23
2019-03-31T13:59:26.801Z,24.52
2019-03-31T14:01:55.215Z,24.15
2019-03-31T14:04:24.110Z,25.52
2019-03-31T14:06:52.545Z,24.85
2019-03-31T14:09:21.071Z,26.95
2019-03-31T14:11:49.515Z,25.70
2019-03-31T14:14:17.957Z,22.42
2019-03-31T14:16:47.120Z,22.60
2019-03-31T14:19:15.560Z,24.23
2019-03-31T14:21:43.977Z,22.60
2019-03-31T14:24:12.424Z,24.27
2019-03-31T14:26:40.840Z,24.43
2019-03-31T14:29:09.273Z,21.73
2019-03-31T14:31:37.660Z,20.65
2019-03-31T14:34:06.078Z,22.27
2019-03-31T14:36:34.786Z,20.77
2019-03-31T14:39:05.641Z,22.65
2019-03-31T14:41:34.536Z,24.30
2019-03-31T14:44:03.049Z,23.60
2019-03-31T14:46:31.500Z,21.20
2019-03-31T14:48:59.923Z,23.50
2019-03-31T14:51:28.399Z,22.05
2019-03-31T14:53:57.742Z,19.48
2019-03-31T14:56:26.172Z,23.00
2019-03-31T14:58:54.583Z,24.40
2019-03-31T15:01:23.001Z,21.93
2019-03-31T15:03:51.594Z,20.68
2019-03-31T15:06:21.141Z,24.27
2019-03-31T15:08:54.683Z,20.62
2019-03-31T15:11:22.007Z,18.55
2019-03-31T15:13:49.879Z,16.90
2019-03-31T15:16:18.287Z,19.50
2019-03-31T15:18:46.706Z,20.00
2019-03-31T15:21:15.122Z,19.92
2019-03-31T15:23:43.650Z,19.50
2019-03-31T15:26:12.063Z,20.45
2019-03-31T15:28:40.467Z,19.07
2019-03-31T15:31:08.878Z,18.80
2019-03-31T15:33:37.305Z,19.25
2019-03-31T15:36:05.973Z,20.17
2019-03-31T15:38:34.395Z,19.17
2019-03-31T15:41:02.788Z,18.42
2019-03-31T15:43:32.164Z,19.73
2019-03-31T15:46:00.569Z,20.08
2019-03-31T15:48:29.079Z,19.17
2019-03-31T15:50:57.867Z,16.32
2019-03-31T15:53:26.297Z,15.03
2019-03-31T15:55:54.702Z,17.48
2019-03-31T15:58:23.111Z,15.28
2019-03-31T16:00:51.790Z,16.12
2019-03-31T16:03:20.205Z,14.65
2019-03-31T16:05:48.629Z,14.30
2019-03-31T16:08:17.349Z,14.33
2019-03-31T16:10:45.766Z,12.97
2019-03-31T16:13:14.216Z,14.78
2019-03-31T16:15:42.691Z,15.43
2019-03-31T16:18:11.111Z,14.63
2019-03-31T16:20:39.538Z,12.55
2019-03-31T16:23:07.937Z,12.58
2019-03-31T16:25:38.001Z,11.28
2019-03-31T16:28:06.407Z,13.55
2019-03-31T16:30:35.865Z,13.80
2019-03-31T16:33:07.027Z,11.68
2019-03-31T16:35:34.542Z,13.03
2019-03-31T16:38:02.978Z,12.43
2019-03-31T16:40:31.478Z,12.70
2019-03-31T16:42:59.888Z,15.03
2019-03-31T16:45:28.757Z,15.72
2019-03-31T16:47:57.213Z,19.27
2019-03-31T16:50:25.629Z,12.65
2019-03-31T16:52:54.079Z,16.37
2019-03-31T16:55:22.645Z,13.70
2019-03-31T16:57:51.071Z,11.75
2019-03-31T17:00:19.786Z,14.87
2019-03-31T17:02:52.161Z,17.87
2019-03-31T17:05:22.440Z,12.90
2019-03-31T17:07:50.918Z,16.07
2019-03-31T17:10:19.333Z,13.35
2019-03-31T17:12:47.782Z,12.60
2019-03-31T17:15:16.381Z,11.03
2019-03-31T17:17:44.813Z,11.40
2019-03-31T17:20:13.796Z,13.15
2019-03-31T17:22:42.270Z,13.80
2019-03-31T17:25:10.854Z,13.20
2019-03-31T17:27:39.278Z,13.80
2019-03-31T17:30:08.229Z,13.87
2019-03-31T17:32:36.624Z,10.82
2019-03-31T17:35:05.971Z,17.67
2019-03-31T17:37:34.462Z,15.18
2019-03-31T17:40:06.209Z,14.35
2019-03-31T17:42:33.979Z,12.58
2019-03-31T17:45:02.424Z,12.30
2019-03-31T17:47:30.831Z,12.95
2019-03-31T17:49:59.350Z,12.05
2019-03-31T17:52:27.791Z,14.40
2019-03-31T17:54:56.216Z,15.75
2019-03-31T17:57:24.613Z,12.33
2019-03-31T17:59:53.287Z,14.18
2019-03-31T18:02:21.689Z,12.03
2019-03-31T18:04:50.102Z,12.03
2019-03-31T18:07:18.499Z,13.45
2019-03-31T18:09:47.083Z,13.00
2019-03-31T18:12:16.100Z,13.25
2019-03-31T18:14:44.579Z,12.03
2019-03-31T18:17:13.029Z,13.32
2019-03-31T18:19:41.452Z,12.98
2019-03-31T18:22:16.417Z,11.57
2019-03-31T18:24:40.129Z,11.88
2019-03-31T18:27:08.551Z,12.30
2019-03-31T18:29:36.948Z,11.83
2019-03-31T18:32:05.373Z,15.32
2019-03-31T18:34:33.808Z,12.80
2019-03-31T18:37:02.212Z,13.45
2019-03-31T18:39:30.642Z,12.80
2019-03-31T18:41:59.081Z,11.63
2019-03-31T18:44:27.481Z,12.45
2019-03-31T18:46:55.907Z,10.35
2019-03-31T18:49:24.303Z,11.40
2019-03-31T18:51:52.722Z,10.95
2019-03-31T18:54:22.784Z,11.57
2019-03-31T18:57:01.399Z,11.37
2019-03-31T18:59:37.168Z,11.00
2019-03-31T19:02:13.298Z,11.95
2019-03-31T19:04:55.345Z,11.35
2019-03-31T19:07:28.206Z,13.30
2019-03-31T19:10:24.554Z,13.25
2019-03-31T19:13:02.491Z,10.08
2019-03-31T19:15:41.482Z,10.63
2019-03-31T19:18:28.115Z,11.55
2019-03-31T19:21:11.482Z,12.15
2019-03-31T19:23:35.899Z,11.52
2019-03-31T19:26:15.339Z,11.60
2019-03-31T19:28:51.106Z,12.45
2019-03-31T19:31:21.136Z,9.45
2019-03-31T19:34:00.349Z,11.15
2019-03-31T19:36:30.391Z,10.55
2019-03-31T19:39:01.394Z,10.58
2019-03-31T19:41:34.491Z,9.87
2019-03-31T19:44:10.232Z,11.00
2019-03-31T19:46:56.733Z,10.70
2019-03-31T19:49:26.789Z,7.97
2019-03-31T19:52:06.564Z,9.08
2019-03-31T19:54:39.760Z,10.03
2019-03-31T19:57:26.388Z,10.58
2019-03-31T19:59:56.507Z,10.50
2019-03-31T20:02:26.577Z,11.43
2019-03-31T20:05:02.495Z,13.43
2019-03-31T20:07:44.571Z,9.20
2019-03-31T20:10:14.762Z,10.60
2019-03-31T20:13:01.314Z,11.57
2019-03-31T20:15:43.609Z,16.23
2019-03-31T20:18:19.819Z,11.05
2019-03-31T20:20:49.878Z,9.38
2019-03-31T20:23:28.725Z,9.20
2019-03-31T20:26:10.533Z,8.03
2019-03-31T20:28:40.594Z,11.08
2019-03-31T20:31:11.401Z,12.53
2019-03-31T20:33:44.442Z,11.83
2019-03-31T20:36:14.519Z,11.22
2019-03-31T20:38:47.609Z,8.70
2019-03-31T20:41:23.438Z,9.80
2019-03-31T20:43:53.911Z,11.30
2019-03-31T20:46:22.961Z,8.60
2019-03-31T20:48:52.270Z,9.20
2019-03-31T20:51:20.805Z,11.63
2019-03-31T20:53:49.246Z,13.30
2019-03-31T20:56:17.678Z,9.88
2019-03-31T20:58:46.077Z,8.97
2019-03-31T21:01:14.500Z,13.98
2019-03-31T21:03:42.913Z,12.15
2019-03-31T21:06:11.657Z,9.63
2019-03-31T21:08:40.140Z,11.80
2019-03-31T21:11:08.708Z,9.50
2019-03-31T21:13:37.178Z,9.63
2019-03-31T21:16:05.718Z,9.98
2019-03-31T21:18:34.137Z,8.88
2019-03-31T21:21:02.591Z,11.65
2019-03-31T21:23:30.992Z,9.40
2019-03-31T21:25:59.480Z,9.25
2019-03-31T21:28:27.899Z,8.03
2019-03-31T21:30:56.304Z,9.15
2019-03-31T21:33:24.730Z,10.50
2019-03-31T21:35:53.145Z,9.20
2019-03-31T21:38:21.543Z,8.48
2019-03-31T21:40:50.716Z,9.15
2019-03-31T21:43:19.194Z,7.67
2019-03-31T21:45:47.617Z,10.67
2019-03-31T21:48:16.021Z,11.05
2019-03-31T21:50:44.433Z,12.07
2019-03-31T21:53:13.108Z,8.13
2019-03-31T21:55:41.526Z,10.32
2019-03-31T21:58:10.013Z,10.08
2019-03-31T22:00:45.903Z,8.38
2019-03-31T22:03:14.301Z,9.10
2019-03-31T22:05:42.698Z,7.08
2019-03-31T22:08:11.129Z,9.05
2019-03-31T22:10:39.602Z,8.88
2019-03-31T22:13:08.031Z,7.63
2019-03-31T22:15:36.516Z,8.43
2019-03-31T22:18:04.930Z,11.85
2019-03-31T22:20:33.735Z,7.58
2019-03-31T22:23:02.444Z,6.65
2019-03-31T22:25:30.842Z,8.37
2019-03-31T22:27:59.262Z,9.68
2019-03-31T22:30:27.669Z,12.68
2019-03-31T22:32:56.092Z,11.53
2019-03-31T22:35:24.494Z,10.30
2019-03-31T22:37:52.973Z,11.80
2019-03-31T22:40:22.281Z,11.53
2019-03-31T22:42:50.684Z,7.95
2019-03-31T22:45:19.078Z,9.23
2019-03-31T22:47:47.505Z,9.75
2019-03-31T22:50:15.926Z,5.90
2019-03-31T22:52:44.357Z,6.63
2019-03-31T22:55:12.841Z,9.83
2019-03-31T22:57:41.286Z,9.45
2019-03-31T23:00:12.962Z,8.38
2019-03-31T23:05:09.070Z,5.03
2019-03-31T23:07:37.762Z,9.55
2019-03-31T23:10:07.078Z,7.58
2019-03-31T23:12:35.495Z,5.53
2019-03-31T23:15:06.139Z,9.10
2019-03-31T23:17:34.506Z,6.50
2019-03-31T23:20:02.914Z,5.20
2019-03-31T23:22:31.324Z,8.83
2019-03-31T23:24:59.753Z,15.20
2019-03-31T23:27:28.180Z,10.85
2019-03-31T23:29:56.587Z,10.65
2019-03-31T23:32:24.997Z,10.45
2019-03-31T23:34:53.418Z,8.43
2019-03-31T23:37:22.085Z,7.28
2019-03-31T23:39:50.772Z,10.18
2019-03-31T23:42:19.162Z,7.80
2019-03-31T23:44:47.573Z,8.95
2019-03-31T23:47:15.972Z,6.47
2019-03-31T23:49:44.378Z,8.38
2019-03-31T23:52:12.785Z,8.37
2019-03-31T23:54:41.183Z,7.08
2019-03-31T23:57:09.586Z,3.35
2019-03-31T23:59:38.010Z,7.72
